Time;durP1;ratioP1;P1;durP2;ratioP2;P2;SDS_P1;SDS_P2;PMS_P1;PMS_P2;Temp;Humidity;BMP_temperature;BMP_pressure;BME280_temperature;BME280_humidity;BME280_pressure;Samples;Min_cycle;Max_cycle;Signal;HPM_P1;HPM_P2
2022/08/26 00:00:22;;;;;;;14.43;4.10;;;;;;;21.98;100.00;98192.69;15270398;19;20055;-76
2022/08/26 00:05:28;;;;;;;15.35;4.28;;;;;;;21.93;100.00;98192.59;15267929;19;20022;-75
2022/08/26 00:10:35;;;;;;;14.60;3.97;;;;;;;21.86;100.00;98182.56;15259825;19;20010;-76
2022/08/26 00:15:41;;;;;;;13.55;4.28;;;;;;;21.74;100.00;98179.00;15267665;19;20117;-76
2022/08/26 00:20:47;;;;;;;16.55;4.45;;;;;;;21.61;100.00;98185.59;15270644;19;20035;-76
2022/08/26 00:25:54;;;;;;;14.27;4.28;;;;;;;21.55;100.00;98181.88;15271627;19;20769;-75
2022/08/26 00:31:00;;;;;;;14.07;4.40;;;;;;;21.48;100.00;98180.31;15268299;19;20007;-76
2022/08/26 00:36:05;;;;;;;12.05;4.10;;;;;;;21.34;100.00;98193.41;15267479;19;20381;-75
2022/08/26 00:41:12;;;;;;;15.52;4.60;;;;;;;21.27;100.00;98193.53;15258370;19;20011;-76
2022/08/26 00:46:22;;;;;;;15.00;4.50;;;;;;;21.19;100.00;98191.97;15265986;19;20022;-75
2022/08/26 00:51:29;;;;;;;13.38;4.63;;;;;;;21.06;100.00;98187.53;15273325;19;20041;-75
2022/08/26 00:56:40;;;;;;;15.60;4.47;;;;;;;21.02;100.00;98182.75;15281197;19;20014;-75
2022/08/26 01:01:46;;;;;;;14.60;4.57;;;;;;;20.98;100.00;98179.66;15280397;19;20022;-75
2022/08/26 01:06:53;;;;;;;14.25;4.72;;;;;;;20.92;100.00;98184.16;15281061;19;20011;-76
2022/08/26 01:12:04;;;;;;;14.18;5.05;;;;;;;20.90;100.00;98188.22;15267228;19;20043;-76
2022/08/26 01:17:09;;;;;;;16.58;5.20;;;;;;;20.75;100.00;98188.66;15284209;19;20010;-76
2022/08/26 01:22:19;;;;;;;15.25;4.95;;;;;;;20.64;100.00;98176.56;15288601;19;20050;-76
2022/08/26 01:27:29;;;;;;;17.98;5.28;;;;;;;20.55;100.00;98191.66;15281219;19;20014;-76
2022/08/26 01:32:37;;;;;;;14.70;5.18;;;;;;;20.52;100.00;98181.97;15288515;19;20011;-77
2022/08/26 01:37:43;;;;;;;13.13;5.15;;;;;;;20.51;100.00;98190.44;15295593;19;20035;-79
2022/08/26 01:42:51;;;;;;;14.05;4.75;;;;;;;20.48;100.00;98189.81;15284155;19;20027;-76
2022/08/26 01:48:00;;;;;;;15.68;5.10;;;;;;;20.46;100.00;98182.91;15276967;19;20018;-75
2022/08/26 01:53:07;;;;;;;15.07;4.53;;;;;;;20.44;100.00;98185.03;15282303;19;20503;-75
2022/08/26 01:58:22;;;;;;;14.60;4.80;;;;;;;20.42;100.00;98176.22;15279651;19;20010;-75
2022/08/26 02:03:27;;;;;;;13.68;4.78;;;;;;;20.40;100.00;98172.91;15283745;19;20038;-75
2022/08/26 02:08:38;;;;;;;15.50;4.72;;;;;;;20.38;100.00;98183.25;15279844;19;20007;-75
2022/08/26 02:13:48;;;;;;;14.32;4.57;;;;;;;20.32;100.00;98182.28;15279372;19;20042;-76
2022/08/26 02:18:56;;;;;;;13.52;4.85;;;;;;;20.26;100.00;98178.56;15267542;19;20471;-76
2022/08/26 02:24:10;;;;;;;16.00;5.10;;;;;;;20.21;100.00;98175.66;15282795;19;20526;-75
2022/08/26 02:29:22;;;;;;;22.88;5.70;;;;;;;20.19;100.00;98177.78;15270147;19;20431;-78
2022/08/26 02:34:29;;;;;;;15.02;4.88;;;;;;;20.18;100.00;98178.84;15275293;19;20472;-79
2022/08/26 02:39:36;;;;;;;15.63;5.47;;;;;;;20.14;100.00;98181.22;15274003;19;20351;-78
2022/08/26 02:44:43;;;;;;;14.95;4.90;;;;;;;20.09;100.00;98174.75;15275780;19;20079;-79
2022/08/26 02:49:48;;;;;;;17.90;5.47;;;;;;;20.02;100.00;98172.09;15263704;19;20050;-78
2022/08/26 02:54:53;;;;;;;14.05;5.45;;;;;;;19.85;100.00;98171.84;15273750;19;20023;-78
2022/08/26 03:00:02;;;;;;;17.50;5.50;;;;;;;19.76;100.00;98173.22;15269879;19;20378;-79
2022/08/26 03:05:08;;;;;;;16.77;5.45;;;;;;;19.73;100.00;98165.47;15281520;19;20018;-77
2022/08/26 03:10:13;;;;;;;16.77;5.10;;;;;;;19.71;100.00;98161.06;15274483;19;20019;-78
2022/08/26 03:15:21;;;;;;;17.50;6.38;;;;;;;19.67;100.00;98169.94;15283186;19;20009;-81
2022/08/26 03:20:26;;;;;;;22.95;6.63;;;;;;;19.51;100.00;98171.38;15267378;19;20014;-79
2022/08/26 03:25:39;;;;;;;20.48;6.07;;;;;;;19.39;100.00;98180.31;15282390;19;20035;-80
2022/08/26 03:30:48;;;;;;;15.98;5.50;;;;;;;19.28;100.00;98177.50;15318314;19;20025;-83
2022/08/26 03:35:54;;;;;;;12.27;5.22;;;;;;;18.97;100.00;98180.06;15287834;19;20078;-81
2022/08/26 03:41:00;;;;;;;18.13;5.95;;;;;;;18.71;100.00;98184.63;15270927;19;20039;-82
2022/08/26 03:46:09;;;;;;;14.52;5.85;;;;;;;18.58;100.00;98176.50;15273396;19;20086;-81
2022/08/26 03:51:15;;;;;;;17.30;6.57;;;;;;;18.42;100.00;98178.69;15273188;19;20025;-80
2022/08/26 03:56:22;;;;;;;13.13;5.93;;;;;;;18.41;100.00;98174.28;15263012;19;20086;-78
2022/08/26 04:01:30;;;;;;;16.33;5.53;;;;;;;18.40;100.00;98178.09;15272234;19;20018;-80
2022/08/26 04:06:38;;;;;;;11.75;4.93;;;;;;;18.39;100.00;98170.97;15270641;19;20035;-82
2022/08/26 04:11:45;;;;;;;15.55;5.65;;;;;;;18.37;100.00;98170.34;15272401;19;20010;-81
2022/08/26 04:16:58;;;;;;;12.27;5.30;;;;;;;18.37;100.00;98167.59;15269294;19;20531;-82
2022/08/26 04:22:02;;;;;;;13.95;5.88;;;;;;;18.36;100.00;98174.13;15275742;19;20038;-80
2022/08/26 04:27:09;;;;;;;13.48;5.85;;;;;;;18.33;100.00;98175.41;15273684;19;20082;-82
2022/08/26 04:32:17;;;;;;;15.23;6.40;;;;;;;18.34;100.00;98189.84;15288684;19;20022;-81
2022/08/26 04:37:21;;;;;;;16.70;6.80;;;;;;;18.31;100.00;98184.81;15289765;19;20034;-80
2022/08/26 04:42:26;;;;;;;18.30;6.70;;;;;;;18.29;100.00;98186.94;15294595;19;20038;-82
2022/08/26 04:47:33;;;;;;;20.05;6.95;;;;;;;18.30;100.00;98174.97;15295133;19;20011;-81
2022/08/26 04:52:38;;;;;;;16.83;7.38;;;;;;;18.29;100.00;98193.22;15292610;19;20018;-82
2022/08/26 04:57:42;;;;;;;19.40;7.30;;;;;;;18.34;100.00;98192.59;15278446;19;20018;-80
2022/08/26 05:02:50;;;;;;;14.02;6.68;;;;;;;18.40;100.00;98194.47;15291639;19;20010;-80
2022/08/26 05:07:55;;;;;;;15.45;6.50;;;;;;;18.46;100.00;98190.84;15294911;19;20010;-80
2022/08/26 05:13:02;;;;;;;17.45;6.78;;;;;;;18.52;100.00;98186.41;15300745;19;20025;-80
2022/08/26 05:18:19;;;;;;;15.50;7.05;;;;;;;18.61;100.00;98189.72;15300435;19;20511;-78
2022/08/26 05:23:25;;;;;;;23.30;7.65;;;;;;;18.64;100.00;98201.03;15304421;19;20466;-81
2022/08/26 05:28:31;;;;;;;19.70;6.90;;;;;;;18.69;100.00;98203.09;15290119;19;20019;-79
2022/08/26 05:33:38;;;;;;;15.32;6.88;;;;;;;18.75;100.00;98213.13;15296015;19;20038;-79
2022/08/26 05:38:45;;;;;;;16.13;7.10;;;;;;;18.78;100.00;98215.41;15292491;19;20576;-80
2022/08/26 05:43:49;;;;;;;19.40;8.05;;;;;;;18.82;100.00;98214.97;15286487;19;20003;-80
2022/08/26 05:48:57;;;;;;;19.00;7.88;;;;;;;18.91;100.00;98211.78;15282331;19;20038;-78
2022/08/26 05:54:05;;;;;;;20.48;8.32;;;;;;;19.01;100.00;98222.22;15287209;19;20014;-78
2022/08/26 05:59:14;;;;;;;19.80;7.10;;;;;;;19.12;100.00;98217.09;15284186;19;20038;-82
2022/08/26 06:04:27;;;;;;;17.05;7.35;;;;;;;19.23;100.00;98219.97;15280579;19;20014;-80
2022/08/26 06:09:33;;;;;;;15.50;5.97;;;;;;;19.34;100.00;98225.75;15295671;19;20038;-82
2022/08/26 06:14:37;;;;;;;14.75;5.40;;;;;;;19.39;100.00;98215.81;15283141;19;20007;-82
2022/08/26 06:19:45;;;;;;;15.73;5.80;;;;;;;19.45;100.00;98213.28;15283725;19;21179;-79
2022/08/26 06:30:09;;;;;;;14.73;5.90;;;;;;;19.67;100.00;98206.34;15279754;19;20503;-82
2022/08/26 06:35:16;;;;;;;14.98;6.53;;;;;;;19.75;100.00;98209.81;15275732;19;20014;-78
2022/08/26 06:40:23;;;;;;;16.55;6.35;;;;;;;19.91;100.00;98212.00;15280757;19;20017;-77
2022/08/26 06:45:28;;;;;;;12.27;5.82;;;;;;;20.08;100.00;98209.50;15285676;19;20011;-80
2022/08/26 06:50:38;;;;;;;14.70;6.20;;;;;;;20.33;100.00;98206.66;15279035;19;20046;-79
2022/08/26 06:55:44;;;;;;;16.00;5.85;;;;;;;20.58;100.00;98193.94;15273880;19;20018;-79
2022/08/26 07:00:49;;;;;;;13.52;5.43;;;;;;;20.82;100.00;98203.06;15275977;19;20010;-78
2022/08/26 07:06:03;;;;;;;17.33;5.50;;;;;;;21.03;100.00;98200.84;15268303;19;20014;-80
2022/08/26 07:11:09;;;;;;;13.52;5.40;;;;;;;21.25;100.00;98191.00;15280297;19;20022;-79
2022/08/26 07:16:16;;;;;;;19.75;5.72;;;;;;;21.46;100.00;98190.66;14771757;19;10000009;-81
2022/08/26 07:21:24;;;;;;;15.35;5.65;;;;;;;21.68;100.00;98177.25;15281948;19;20038;-79
2022/08/26 07:26:31;;;;;;;16.63;5.25;;;;;;;21.93;100.00;98174.22;15287875;19;20047;-78
2022/08/26 07:31:40;;;;;;;12.23;4.60;;;;;;;22.25;100.00;98175.69;15327609;19;20054;-80
2022/08/26 07:36:49;;;;;;;12.77;4.60;;;;;;;22.57;100.00;98167.84;15299376;19;20014;-80
2022/08/26 07:41:54;;;;;;;18.45;4.80;;;;;;;22.89;100.00;98167.31;15255325;19;20038;-77
2022/08/26 07:46:59;;;;;;;14.18;4.45;;;;;;;23.26;100.00;98157.75;15259827;19;20050;-78
2022/08/26 07:52:08;;;;;;;13.60;4.20;;;;;;;23.63;100.00;98156.41;15263991;19;20014;-78
2022/08/26 07:57:14;;;;;;;14.57;4.37;;;;;;;23.95;100.00;98162.06;15272888;19;20011;-78
2022/08/26 08:02:22;;;;;;;13.18;4.07;;;;;;;24.18;100.00;98149.13;15287960;19;20086;-79
2022/08/26 08:07:30;;;;;;;14.05;4.20;;;;;;;24.30;100.00;98152.59;15288163;19;20018;-78
2022/08/26 08:12:49;;;;;;;9.52;3.75;;;;;;;24.46;100.00;98144.50;15278491;19;20044;-82
2022/08/26 08:17:56;;;;;;;13.65;3.58;;;;;;;24.56;100.00;98152.06;15289828;19;20376;-78
2022/08/26 08:23:06;;;;;;;12.80;3.80;;;;;;;24.67;100.00;98144.72;15289661;19;20034;-80
2022/08/26 08:28:11;;;;;;;14.32;3.97;;;;;;;24.75;100.00;98141.53;15288569;19;20015;-78
2022/08/26 08:33:16;;;;;;;12.43;3.67;;;;;;;24.84;100.00;98145.47;15285718;19;20817;-77
2022/08/26 08:38:24;;;;;;;13.10;3.47;;;;;;;24.90;100.00;98138.09;15285449;19;20021;-78
2022/08/26 08:43:34;;;;;;;12.73;3.60;;;;;;;24.98;100.00;98131.25;15280274;19;20007;-81
2022/08/26 08:48:47;;;;;;;14.70;3.70;;;;;;;25.05;100.00;98129.09;15286489;19;20527;-77
2022/08/26 08:53:55;;;;;;;;;;;;;;;25.13;100.00;98122.28;15287415;19;20393;-79
2022/08/26 08:59:09;;;;;;;16.35;3.63;;;;;;;25.29;100.00;98120.47;15285031;19;19938;-80
2022/08/26 09:04:32;;;;;;;12.00;3.65;;;;;;;25.40;100.00;98111.16;15287986;19;20015;-79
2022/08/26 09:09:43;;;;;;;13.38;3.33;;;;;;;25.54;100.00;98095.00;15281386;19;20363;-80
2022/08/26 09:14:50;;;;;;;12.15;3.67;;;;;;;25.77;100.00;98090.97;15276160;19;20015;-78
2022/08/26 09:20:02;;;;;;;14.45;3.53;;;;;;;26.05;100.00;98085.28;15281667;19;20483;-78
2022/08/26 09:25:12;;;;;;;13.32;3.50;;;;;;;26.21;100.00;98083.44;15289950;19;20038;-78
2022/08/26 09:30:25;;;;;;;12.73;3.50;;;;;;;26.36;100.00;98089.00;15281256;19;20337;-81
2022/08/26 09:35:32;;;;;;;13.10;3.28;;;;;;;26.51;100.00;98079.09;15280602;19;20035;-80
2022/08/26 09:40:40;;;;;;;19.83;3.90;;;;;;;26.59;100.00;98075.75;15286799;19;20015;-79
2022/08/26 09:45:53;;;;;;;14.63;3.42;;;;;;;26.78;100.00;98070.56;15283496;19;20018;-81
2022/08/26 09:51:04;;;;;;;13.35;3.58;;;;;;;26.88;100.00;98072.47;15339394;19;20010;-80
2022/08/26 09:56:18;;;;;;;14.40;4.05;;;;;;;26.93;100.00;98064.19;15300706;19;20018;-81
2022/08/26 10:01:30;;;;;;;16.80;3.40;;;;;;;27.02;100.00;98056.16;15281946;19;20018;-81
2022/08/26 10:06:40;;;;;;;12.60;3.40;;;;;;;27.18;100.00;98055.03;15278543;19;20345;-79
2022/08/26 10:11:49;;;;;;;16.38;3.15;;;;;;;27.44;100.00;98038.41;15288641;19;20019;-80
2022/08/26 10:17:00;;;;;;;12.30;3.20;;;;;;;27.64;100.00;98040.28;15286436;19;20042;-80
2022/08/26 10:22:13;;;;;;;12.75;3.40;;;;;;;27.83;100.00;98025.78;15279302;19;20018;-79
2022/08/26 10:27:26;;;;;;;14.65;3.30;;;;;;;28.05;100.00;98027.34;15296449;19;20018;-79
2022/08/26 10:32:36;;;;;;;10.60;2.67;;;;;;;28.30;100.00;98013.34;15297800;19;20566;-78
2022/08/26 10:37:50;;;;;;;12.63;2.90;;;;;;;28.42;100.00;98003.84;15286769;19;20022;-81
2022/08/26 10:43:03;;;;;;;12.15;3.05;;;;;;;28.47;100.00;97989.13;15291121;19;20022;-81
2022/08/26 10:48:21;;;;;;;9.40;2.73;;;;;;;28.69;100.00;97975.63;15323047;19;20091;-81
2022/08/26 10:53:39;;;;;;;16.05;3.30;;;;;;;28.68;100.00;97978.69;15336002;19;20017;-81
2022/08/26 10:59:03;;;;;;;9.85;3.20;;;;;;;28.42;100.00;97959.50;15344619;19;20050;-80
2022/08/26 11:04:24;;;;;;;9.65;2.90;;;;;;;28.40;100.00;97967.31;15350765;19;20021;-78
2022/08/26 11:09:53;;;;;;;10.98;3.08;;;;;;;28.10;100.00;97949.81;15343809;19;20071;-80
2022/08/26 11:15:00;;;;;;;12.75;3.33;;;;;;;28.24;100.00;97941.66;15336333;19;20071;-81
2022/08/26 11:20:10;;;;;;;11.65;3.20;;;;;;;28.28;100.00;97932.47;15309732;19;20007;-82
2022/08/26 11:25:19;;;;;;;12.38;2.90;;;;;;;28.30;100.00;97930.25;15297756;19;20014;-85
2022/08/26 11:30:49;;;;;;;10.63;3.08;;;;;;;28.44;100.00;97940.66;15303334;19;20049;-85
2022/08/26 11:36:04;;;;;;;10.32;2.63;;;;;;;28.69;100.00;97919.38;15302338;19;20386;-83
2022/08/26 11:41:28;;;;;;;10.30;2.85;;;;;;;28.97;100.00;97912.16;15308696;19;20011;-85
2022/08/26 11:47:02;;;;;;;9.45;2.67;;;;;;;29.28;99.93;97917.34;15293558;19;20015;-86
2022/08/26 11:52:32;;;;;;;9.45;2.60;;;;;;;29.54;98.34;97921.75;15294193;19;20639;-85
2022/08/26 11:57:59;;;;;;;10.20;2.60;;;;;;;29.74;100.00;97915.91;15285346;19;20482;-85
2022/08/26 12:03:37;;;;;;;12.00;3.03;;;;;;;30.06;86.21;97917.13;15293268;19;20022;-84
2022/08/26 12:08:46;;;;;;;8.98;2.47;;;;;;;30.42;86.27;97912.94;15288429;19;20339;-85
2022/08/26 12:14:01;;;;;;;11.88;2.85;;;;;;;30.60;92.91;97911.25;15298524;19;20034;-81
2022/08/26 12:19:25;;;;;;;8.25;2.40;;;;;;;30.67;74.38;97900.53;15282662;19;20043;-81
2022/08/26 12:24:33;;;;;;;9.82;2.40;;;;;;;30.36;79.60;97897.44;15287650;19;20003;-83
2022/08/26 12:29:38;;;;;;;12.48;2.85;;;;;;;30.10;87.18;97895.94;15278788;19;20021;-80
2022/08/26 12:34:45;;;;;;;14.30;2.88;;;;;;;30.02;89.86;97893.03;15284726;19;20018;-78
2022/08/26 12:39:52;;;;;;;11.10;2.60;;;;;;;30.12;88.72;97879.81;15276949;19;20011;-79
2022/08/26 12:45:03;;;;;;;10.23;2.30;;;;;;;30.51;85.14;97879.69;15281828;19;20491;-81
2022/08/26 12:50:11;;;;;;;9.02;2.67;;;;;;;30.91;81.40;97860.59;15300935;19;20010;-79
2022/08/26 12:55:24;;;;;;;12.90;2.63;;;;;;;31.25;70.81;97845.44;15285499;19;20558;-80
2022/08/26 13:00:36;;;;;;;7.75;2.40;;;;;;;31.61;67.68;97847.41;15300894;19;20011;-79
2022/08/26 13:05:41;;;;;;;8.20;2.10;;;;;;;31.96;65.25;97839.34;15297378;19;20316;-80
2022/08/26 13:10:49;;;;;;;8.60;2.28;;;;;;;32.31;60.92;97843.53;15294430;19;20013;-79
2022/08/26 13:15:54;;;;;;;9.27;2.17;;;;;;;32.36;61.08;97844.22;15290466;19;20565;-79
2022/08/26 13:20:59;;;;;;;7.75;2.20;;;;;;;32.03;58.97;97852.84;15293029;19;20039;-78
2022/08/26 13:26:06;;;;;;;6.47;2.50;;;;;;;31.22;61.19;97846.09;15290979;19;20013;-79
2022/08/26 13:31:16;;;;;;;8.57;2.20;;;;;;;30.65;60.62;97840.81;15293798;19;20022;-78
2022/08/26 13:36:22;;;;;;;5.47;1.60;;;;;;;30.30;57.54;97835.59;15289316;19;20015;-80
2022/08/26 13:41:30;;;;;;;5.65;1.85;;;;;;;29.94;56.73;97831.50;15288965;19;20413;-76
2022/08/26 13:46:35;;;;;;;7.72;1.92;;;;;;;29.77;57.28;97826.47;15292374;19;20489;-78
2022/08/26 13:51:41;;;;;;;8.80;1.98;;;;;;;29.82;59.13;97817.22;15301609;19;20026;-79
2022/08/26 13:56:48;;;;;;;7.30;2.00;;;;;;;29.85;58.14;97821.34;15294495;19;20023;-75
2022/08/26 14:02:01;;;;;;;9.55;2.40;;;;;;;29.96;66.49;97817.31;15305399;19;20313;-80
2022/08/26 14:07:09;;;;;;;6.60;1.98;;;;;;;29.98;69.26;97826.16;15343280;19;20309;-87
2022/08/26 14:12:17;;;;;;;8.52;2.38;;;;;;;29.91;80.87;97842.38;15305600;19;20018;-80
2022/08/26 14:17:24;;;;;;;8.73;2.40;;;;;;;29.65;91.47;97848.31;15286355;19;20018;-80
2022/08/26 14:22:33;;;;;;;7.32;2.33;;;;;;;29.42;95.30;97856.44;15283283;19;20024;-81
2022/08/26 14:27:46;;;;;;;13.55;2.90;;;;;;;28.66;100.00;97850.66;15279751;19;20028;-79
2022/08/26 14:32:55;;;;;;;16.52;5.03;;;;;;;26.72;100.00;97842.28;15288556;19;20042;-84
2022/08/26 14:37:59;;;;;;;5.45;1.90;;;;;;;25.40;100.00;97890.56;15286520;19;20010;-81
2022/08/26 14:43:08;;;;;;;13.95;3.50;;;;;;;23.73;100.00;97891.66;15304435;19;20003;-86
2022/08/26 14:48:13;;;;;;;7.75;3.40;;;;;;;22.69;100.00;97895.94;15286351;19;20014;-79
2022/08/26 14:58:38;;;;;;;12.95;4.13;;;;;;;21.69;100.00;97941.22;15300308;19;20014;-80
2022/08/26 15:03:43;;;;;;;8.07;3.03;;;;;;;21.52;100.00;97967.72;15299350;19;20011;-81
2022/08/26 15:08:48;;;;;;;13.82;4.30;;;;;;;20.72;100.00;98005.69;15288730;19;20814;-78
2022/08/26 15:13:56;;;;;;;9.85;4.20;;;;;;;19.99;100.00;98052.28;15274926;19;20138;-77
2022/08/26 15:19:03;;;;;;;8.45;4.00;;;;;;;19.82;100.00;98035.63;15280627;19;20010;-76
2022/08/26 15:24:07;;;;;;;12.00;4.43;;;;;;;19.71;100.00;98038.09;15276313;19;20018;-78
2022/08/26 15:29:15;;;;;;;12.07;6.00;;;;;;;19.83;100.00;98019.03;15276565;19;20038;-80
2022/08/26 15:34:21;;;;;;;9.63;5.05;;;;;;;19.81;100.00;98021.16;15277479;19;20014;-78
2022/08/26 15:39:26;;;;;;;12.98;6.30;;;;;;;19.83;100.00;98012.69;15274591;19;20030;-76
2022/08/26 15:44:35;;;;;;;9.57;6.13;;;;;;;19.88;100.00;98012.88;15276739;19;20018;-80
2022/08/26 15:49:45;;;;;;;9.75;4.88;;;;;;;19.89;100.00;98019.16;15277249;19;20020;-82
2022/08/26 17:14:42;;;;;;;5.68;3.22;;;;;;;19.85;100.00;98002.38;15292686;19;20078;-78
2022/08/26 17:19:49;;;;;;;7.25;3.00;;;;;;;19.90;100.00;98020.84;15287500;19;20047;-76
2022/08/26 17:24:53;;;;;;;4.95;2.90;;;;;;;19.88;100.00;98015.63;15282893;19;20023;-76
2022/08/26 17:30:01;;;;;;;5.03;2.90;;;;;;;19.92;100.00;98010.50;15288567;19;20022;-77
2022/08/26 17:35:08;;;;;;;5.53;3.08;;;;;;;19.93;100.00;98010.31;15282663;19;20011;-78
2022/08/26 17:40:27;;;;;;;6.80;3.40;;;;;;;19.93;100.00;98006.72;15283479;19;20022;-78
2022/08/26 17:45:35;;;;;;;5.40;3.00;;;;;;;19.92;100.00;98011.38;15292298;19;20479;-78
2022/08/26 17:50:40;;;;;;;4.03;2.40;;;;;;;19.91;100.00;98014.31;15263242;19;20014;-78
2022/08/26 17:55:45;;;;;;;5.15;2.78;;;;;;;19.87;100.00;98000.28;15285875;19;20014;-79
2022/08/26 18:00:54;;;;;;;4.45;2.80;;;;;;;19.84;100.00;98017.97;15287935;19;20018;-78
2022/08/26 18:05:59;;;;;;;5.43;2.97;;;;;;;19.84;100.00;98022.56;15286744;19;20011;-77
2022/08/26 18:11:08;;;;;;;4.60;3.00;;;;;;;19.78;100.00;98024.34;15296188;19;20470;-76
2022/08/26 18:16:18;;;;;;;4.30;3.50;;;;;;;19.64;100.00;98031.88;15299562;19;20010;-76
2022/08/26 18:21:25;;;;;;;4.90;3.45;;;;;;;19.59;100.00;98044.56;15300726;19;20015;-78
2022/08/26 18:26:37;;;;;;;6.85;3.90;;;;;;;19.54;100.00;98035.16;15294368;19;20007;-79
2022/08/26 18:31:48;;;;;;;6.60;3.70;;;;;;;19.50;100.00;98033.94;15304725;19;20390;-80
2022/08/26 18:36:56;;;;;;;5.10;3.43;;;;;;;19.54;100.00;98034.31;15300723;19;20466;-76
2022/08/26 18:42:09;;;;;;;6.75;3.97;;;;;;;19.51;100.00;98040.25;15342699;19;19999;-84
2022/08/26 18:47:24;;;;;;;5.15;3.53;;;;;;;19.47;100.00;98033.56;15332257;19;20031;-78
2022/08/26 18:52:30;;;;;;;4.70;3.58;;;;;;;19.43;100.00;98032.34;15302991;19;20620;-78
2022/08/26 18:57:43;;;;;;;6.18;3.20;;;;;;;19.47;100.00;98039.88;15298340;19;20034;-78
2022/08/26 19:02:52;;;;;;;7.00;3.40;;;;;;;19.47;100.00;98034.41;15284954;19;20007;-77
2022/08/26 19:08:01;;;;;;;6.10;3.75;;;;;;;19.49;100.00;98032.28;15283886;19;20011;-78
2022/08/26 19:13:08;;;;;;;4.90;3.65;;;;;;;19.53;100.00;98035.38;15251754;19;20336;-77
2022/08/26 19:18:18;;;;;;;5.90;3.08;;;;;;;19.56;100.00;98052.16;15286304;19;20375;-78
2022/08/26 19:23:23;;;;;;;4.55;3.00;;;;;;;19.56;100.00;98048.59;15286466;19;20033;-78
2022/08/26 19:28:38;;;;;;;4.97;3.08;;;;;;;19.55;100.00;98046.94;15282613;19;20074;-77
2022/08/26 19:33:45;;;;;;;4.72;2.70;;;;;;;19.54;100.00;98048.81;15274232;19;20023;-77
2022/08/26 19:38:54;;;;;;;5.15;2.90;;;;;;;19.52;100.00;98067.31;15283133;19;20560;-78
2022/08/26 19:44:00;;;;;;;4.30;3.20;;;;;;;19.40;100.00;98078.19;15274603;19;20015;-77
2022/08/26 19:49:09;;;;;;;3.88;2.80;;;;;;;19.40;100.00;98091.03;15282026;19;20506;-78
2022/08/26 19:54:14;;;;;;;5.32;3.10;;;;;;;19.39;100.00;98097.53;15277146;19;20014;-78
2022/08/26 19:59:19;;;;;;;4.55;2.70;;;;;;;19.39;100.00;98103.84;15274042;19;20094;-78
2022/08/26 20:04:26;;;;;;;4.93;2.90;;;;;;;19.39;100.00;98109.28;15274410;19;20014;-78
2022/08/26 20:09:32;;;;;;;3.38;2.85;;;;;;;19.38;100.00;98112.25;15280492;19;20780;-77
2022/08/26 20:14:38;;;;;;;6.50;3.20;;;;;;;19.38;100.00;98118.53;15276491;19;20130;-78
2022/08/26 20:25:02;;;;;;;6.30;3.40;;;;;;;19.42;100.00;98105.25;15272234;19;20327;-77
2022/08/26 20:30:09;;;;;;;6.15;3.20;;;;;;;19.44;100.00;98116.00;15274599;19;20015;-77
2022/08/26 20:35:17;;;;;;;4.90;3.38;;;;;;;19.44;100.00;98100.41;15277279;19;20010;-76
2022/08/26 20:40:22;;;;;;;4.65;3.25;;;;;;;19.45;100.00;98093.91;15274790;19;20014;-78
2022/08/26 20:45:27;;;;;;;6.68;3.55;;;;;;;19.45;100.00;98096.63;15308888;19;20015;-78
2022/08/26 20:50:34;;;;;;;4.88;3.55;;;;;;;19.42;100.00;98091.59;15326552;19;20018;-78
2022/08/26 20:55:39;;;;;;;5.38;4.07;;;;;;;19.35;100.00;98093.59;15288161;19;20023;-79
2022/08/26 21:00:44;;;;;;;6.90;4.53;;;;;;;19.28;100.00;98096.38;15291353;19;20015;-79
2022/08/26 21:05:51;;;;;;;11.30;6.22;;;;;;;19.21;100.00;98101.09;15283047;19;20014;-79
2022/08/26 21:10:56;;;;;;;10.02;6.63;;;;;;;19.15;100.00;98110.16;15300412;19;20041;-79
2022/08/26 21:16:01;;;;;;;6.68;5.95;;;;;;;19.17;100.00;98111.59;15294839;19;20030;-78
2022/08/26 21:21:10;;;;;;;7.80;5.40;;;;;;;19.17;100.00;98121.69;15296806;19;20022;-78
2022/08/26 21:26:17;;;;;;;8.60;5.60;;;;;;;19.20;100.00;98121.25;15290325;19;20038;-77
2022/08/26 21:31:23;;;;;;;6.75;5.10;;;;;;;19.22;100.00;98117.25;15296174;19;20010;-79
2022/08/26 21:36:31;;;;;;;7.03;5.03;;;;;;;19.27;100.00;98108.38;15284433;19;20414;-79
2022/08/26 21:41:35;;;;;;;6.40;5.35;;;;;;;19.27;100.00;98110.28;15288679;19;20010;-79
2022/08/26 21:46:40;;;;;;;8.35;5.68;;;;;;;19.27;100.00;98105.63;15291746;19;20021;-79
2022/08/26 21:51:49;;;;;;;8.88;5.60;;;;;;;19.28;100.00;98101.84;15289981;19;20557;-79
2022/08/26 21:56:53;;;;;;;6.30;5.10;;;;;;;19.29;100.00;98103.53;15292280;19;20050;-79
2022/08/26 22:01:58;;;;;;;6.78;5.60;;;;;;;19.30;100.00;98105.19;15298063;19;20015;-80
2022/08/26 22:07:06;;;;;;;7.63;5.82;;;;;;;19.32;100.00;98103.06;15282389;19;20441;-79
2022/08/26 22:12:12;;;;;;;10.27;6.35;;;;;;;19.32;100.00;98092.16;15295763;19;20010;-79
2022/08/26 22:17:17;;;;;;;7.18;5.88;;;;;;;19.33;100.00;98092.97;15294715;19;20066;-80
2022/08/26 22:22:32;;;;;;;8.75;6.28;;;;;;;19.31;100.00;98090.47;15302502;19;20011;-78
2022/08/26 22:27:37;;;;;;;8.38;6.40;;;;;;;19.33;100.00;98101.16;15304009;19;20522;-83
2022/08/26 22:32:46;;;;;;;8.15;5.78;;;;;;;19.32;100.00;98103.06;15290600;19;20082;-85
2022/08/26 22:37:53;;;;;;;7.93;6.32;;;;;;;19.33;100.00;98110.22;15292829;19;20443;-83
2022/08/26 22:43:00;;;;;;;9.48;6.55;;;;;;;19.30;100.00;98105.19;15294292;19;20011;-85
2022/08/26 22:48:07;;;;;;;10.75;7.50;;;;;;;19.28;100.00;98109.22;15292263;19;20011;-83
2022/08/26 22:53:15;;;;;;;11.02;7.00;;;;;;;19.28;100.00;98106.50;15292501;19;20368;-83
2022/08/26 22:58:20;;;;;;;9.85;7.13;;;;;;;19.27;100.00;98099.34;15345659;19;20010;-84
2022/08/26 23:03:35;;;;;;;11.35;8.50;;;;;;;19.17;100.00;98099.84;15282420;19;20342;-83
2022/08/26 23:08:45;;;;;;;11.85;10.15;;;;;;;19.13;100.00;98104.09;15280957;19;20021;-84
2022/08/26 23:13:49;;;;;;;11.90;10.05;;;;;;;19.05;100.00;98103.31;15279128;19;20018;-83
2022/08/26 23:18:54;;;;;;;19.25;13.52;;;;;;;18.94;100.00;98118.53;15278036;19;20046;-84
2022/08/26 23:24:02;;;;;;;17.35;13.93;;;;;;;18.88;100.00;98110.38;15282229;19;20014;-83
2022/08/26 23:29:09;;;;;;;18.33;14.43;;;;;;;18.83;100.00;98112.94;15290131;19;20032;-84
2022/08/26 23:39:36;;;;;;;18.20;14.55;;;;;;;18.74;100.00;98118.69;15283394;19;20022;-84
2022/08/26 23:44:41;;;;;;;16.38;12.88;;;;;;;18.74;100.00;98124.16;15282612;19;20032;-84
2022/08/26 23:49:46;;;;;;;19.52;15.10;;;;;;;18.74;100.00;98126.88;15281314;19;20010;-83
2022/08/26 23:54:53;;;;;;;21.40;18.48;;;;;;;18.72;100.00;98134.44;15278954;19;20022;-83
2022/08/26 23:59:58;;;;;;;33.53;22.23;;;;;;;18.73;100.00;98127.94;15277598;19;20094;-83
